sensor_id;sensor_type;location;lat;lon;timestamp;P1;P2;P0
57049;PMS7003;42935;50.966;16.992;2024-01-30T00:01:24;4;4;2
57049;PMS7003;42935;50.966;16.992;2024-01-30T00:04:43;8;5;3
57049;PMS7003;42935;50.966;16.992;2024-01-30T00:08:05;8;5;4
57049;PMS7003;42935;50.966;16.992;2024-01-30T00:11:23;11;9;6
57049;PMS7003;42935;50.966;16.992;2024-01-30T00:14:50;12;7;5
57049;PMS7003;42935;50.966;16.992;2024-01-30T00:18:08;8;4;3
57049;PMS7003;42935;50.966;16.992;2024-01-30T00:21:30;10;8;4
57049;PMS7003;42935;50.966;16.992;2024-01-30T00:24:48;13;5;3
57049;PMS7003;42935;50.966;16.992;2024-01-30T00:28:08;10;6;5
57049;PMS7003;42935;50.966;16.992;2024-01-30T00:31:26;12;7;5
57049;PMS7003;42935;50.966;16.992;2024-01-30T00:34:43;10;7;5
57049;PMS7003;42935;50.966;16.992;2024-01-30T00:38:02;6;6;4
57049;PMS7003;42935;50.966;16.992;2024-01-30T00:41:20;11;7;5
57049;PMS7003;42935;50.966;16.992;2024-01-30T00:44:38;14;6;4
57049;PMS7003;42935;50.966;16.992;2024-01-30T00:48:00;13;6;5
57049;PMS7003;42935;50.966;16.992;2024-01-30T00:51:17;8;7;6
57049;PMS7003;42935;50.966;16.992;2024-01-30T00:54:35;9;6;4
57049;PMS7003;42935;50.966;16.992;2024-01-30T00:58:00;14;10;7
57049;PMS7003;42935;50.966;16.992;2024-01-30T01:01:23;11;7;4
57049;PMS7003;42935;50.966;16.992;2024-01-30T01:04:42;11;7;6
57049;PMS7003;42935;50.966;16.992;2024-01-30T01:08:02;10;6;5
57049;PMS7003;42935;50.966;16.992;2024-01-30T01:11:54;13;10;7
57049;PMS7003;42935;50.966;16.992;2024-01-30T01:15:11;11;7;5
57049;PMS7003;42935;50.966;16.992;2024-01-30T01:19:00;16;10;7
57049;PMS7003;42935;50.966;16.992;2024-01-30T01:22:18;10;5;4
57049;PMS7003;42935;50.966;16.992;2024-01-30T01:25:39;7;6;5
57049;PMS7003;42935;50.966;16.992;2024-01-30T01:28:55;8;5;4
57049;PMS7003;42935;50.966;16.992;2024-01-30T01:32:15;11;8;6
57049;PMS7003;42935;50.966;16.992;2024-01-30T01:35:35;14;9;6
57049;PMS7003;42935;50.966;16.992;2024-01-30T01:39:26;18;12;8
57049;PMS7003;42935;50.966;16.992;2024-01-30T01:42:46;11;9;6
57049;PMS7003;42935;50.966;16.992;2024-01-30T01:46:05;9;5;3
57049;PMS7003;42935;50.966;16.992;2024-01-30T01:49:25;12;6;4
57049;PMS7003;42935;50.966;16.992;2024-01-30T01:52:48;8;6;5
57049;PMS7003;42935;50.966;16.992;2024-01-30T01:56:08;9;7;5
57049;PMS7003;42935;50.966;16.992;2024-01-30T01:59:28;11;7;5
57049;PMS7003;42935;50.966;16.992;2024-01-30T02:02:45;8;5;3
57049;PMS7003;42935;50.966;16.992;2024-01-30T02:06:04;8;5;4
57049;PMS7003;42935;50.966;16.992;2024-01-30T02:09:21;8;6;5
57049;PMS7003;42935;50.966;16.992;2024-01-30T02:12:39;9;5;3
57049;PMS7003;42935;50.966;16.992;2024-01-30T02:16:06;10;8;4
57049;PMS7003;42935;50.966;16.992;2024-01-30T02:19:24;7;5;4
57049;PMS7003;42935;50.966;16.992;2024-01-30T02:22:42;7;4;3
57049;PMS7003;42935;50.966;16.992;2024-01-30T02:26:03;7;5;4
57049;PMS7003;42935;50.966;16.992;2024-01-30T02:29:24;10;4;4
57049;PMS7003;42935;50.966;16.992;2024-01-30T02:32:44;13;7;5
57049;PMS7003;42935;50.966;16.992;2024-01-30T02:36:08;6;5;4
57049;PMS7003;42935;50.966;16.992;2024-01-30T02:39:28;9;7;5
57049;PMS7003;42935;50.966;16.992;2024-01-30T02:42:46;9;7;5
57049;PMS7003;42935;50.966;16.992;2024-01-30T02:46:39;14;11;7
57049;PMS7003;42935;50.966;16.992;2024-01-30T02:49:56;9;7;5
57049;PMS7003;42935;50.966;16.992;2024-01-30T02:53:18;15;9;6
57049;PMS7003;42935;50.966;16.992;2024-01-30T02:56:35;12;8;6
57049;PMS7003;42935;50.966;16.992;2024-01-30T02:59:53;9;7;4
57049;PMS7003;42935;50.966;16.992;2024-01-30T03:03:42;14;9;6
57049;PMS7003;42935;50.966;16.992;2024-01-30T03:07:05;11;7;3
57049;PMS7003;42935;50.966;16.992;2024-01-30T03:10:20;12;7;5
57049;PMS7003;42935;50.966;16.992;2024-01-30T03:13:41;13;6;3
57049;PMS7003;42935;50.966;16.992;2024-01-30T03:16:59;8;6;4
57049;PMS7003;42935;50.966;16.992;2024-01-30T03:20:51;16;9;5
57049;PMS7003;42935;50.966;16.992;2024-01-30T03:24:07;12;5;3
57049;PMS7003;42935;50.966;16.992;2024-01-30T03:27:27;10;5;3
57049;PMS7003;42935;50.966;16.992;2024-01-30T03:30:45;12;5;4
57049;PMS7003;42935;50.966;16.992;2024-01-30T03:34:03;9;4;4
57049;PMS7003;42935;50.966;16.992;2024-01-30T03:37:20;9;5;4
57049;PMS7003;42935;50.966;16.992;2024-01-30T03:40:40;13;7;4
57049;PMS7003;42935;50.966;16.992;2024-01-30T03:44:00;8;5;5
57049;PMS7003;42935;50.966;16.992;2024-01-30T03:47:21;10;4;3
57049;PMS7003;42935;50.966;16.992;2024-01-30T03:50:37;8;6;4
57049;PMS7003;42935;50.966;16.992;2024-01-30T03:53:54;12;5;4
57049;PMS7003;42935;50.966;16.992;2024-01-30T03:57:14;10;7;5
57049;PMS7003;42935;50.966;16.992;2024-01-30T04:00:36;9;7;4
57049;PMS7003;42935;50.966;16.992;2024-01-30T04:04:27;17;11;7
57049;PMS7003;42935;50.966;16.992;2024-01-30T04:07:47;7;6;4
57049;PMS7003;42935;50.966;16.992;2024-01-30T04:11:06;8;6;4
57049;PMS7003;42935;50.966;16.992;2024-01-30T04:14:24;6;4;3
57049;PMS7003;42935;50.966;16.992;2024-01-30T04:17:43;11;6;4
57049;PMS7003;42935;50.966;16.992;2024-01-30T04:21:00;10;5;4
57049;PMS7003;42935;50.966;16.992;2024-01-30T04:24:22;9;5;5
57049;PMS7003;42935;50.966;16.992;2024-01-30T04:27:42;10;6;4
57049;PMS7003;42935;50.966;16.992;2024-01-30T04:31:00;5;5;3
57049;PMS7003;42935;50.966;16.992;2024-01-30T04:34:16;10;6;4
57049;PMS7003;42935;50.966;16.992;2024-01-30T04:38:07;16;11;7
57049;PMS7003;42935;50.966;16.992;2024-01-30T04:41:27;11;6;5
57049;PMS7003;42935;50.966;16.992;2024-01-30T04:44:47;7;6;4
57049;PMS7003;42935;50.966;16.992;2024-01-30T04:48:09;9;9;7
57049;PMS7003;42935;50.966;16.992;2024-01-30T04:51:29;9;6;4
57049;PMS7003;42935;50.966;16.992;2024-01-30T04:54:51;10;5;3
57049;PMS7003;42935;50.966;16.992;2024-01-30T04:58:09;9;4;4
57049;PMS7003;42935;50.966;16.992;2024-01-30T05:01:26;9;6;5
57049;PMS7003;42935;50.966;16.992;2024-01-30T05:04:50;9;6;4
57049;PMS7003;42935;50.966;16.992;2024-01-30T05:08:11;17;7;5
57049;PMS7003;42935;50.966;16.992;2024-01-30T05:11:36;13;5;3
57049;PMS7003;42935;50.966;16.992;2024-01-30T05:15:01;7;5;4
57049;PMS7003;42935;50.966;16.992;2024-01-30T05:18:19;10;6;4
57049;PMS7003;42935;50.966;16.992;2024-01-30T05:21:36;8;7;4
57049;PMS7003;42935;50.966;16.992;2024-01-30T05:24:52;11;7;4
57049;PMS7003;42935;50.966;16.992;2024-01-30T05:28:13;10;6;5
57049;PMS7003;42935;50.966;16.992;2024-01-30T05:31:34;10;6;4
57049;PMS7003;42935;50.966;16.992;2024-01-30T05:34:55;12;6;4
57049;PMS7003;42935;50.966;16.992;2024-01-30T05:38:17;9;4;3
57049;PMS7003;42935;50.966;16.992;2024-01-30T05:41:36;9;5;3
57049;PMS7003;42935;50.966;16.992;2024-01-30T05:44:58;9;4;4
57049;PMS7003;42935;50.966;16.992;2024-01-30T05:48:19;9;7;5
57049;PMS7003;42935;50.966;16.992;2024-01-30T05:51:37;7;5;3
57049;PMS7003;42935;50.966;16.992;2024-01-30T05:55:09;7;6;5
57049;PMS7003;42935;50.966;16.992;2024-01-30T05:58:33;12;7;5
57049;PMS7003;42935;50.966;16.992;2024-01-30T06:01:53;12;7;5
57049;PMS7003;42935;50.966;16.992;2024-01-30T06:05:10;10;6;4
57049;PMS7003;42935;50.966;16.992;2024-01-30T06:08:28;12;7;4
57049;PMS7003;42935;50.966;16.992;2024-01-30T06:12:19;10;7;5
57049;PMS7003;42935;50.966;16.992;2024-01-30T06:15:39;16;6;5
57049;PMS7003;42935;50.966;16.992;2024-01-30T06:18:58;10;6;4
57049;PMS7003;42935;50.966;16.992;2024-01-30T06:22:15;11;4;3
57049;PMS7003;42935;50.966;16.992;2024-01-30T06:25:35;9;4;3
57049;PMS7003;42935;50.966;16.992;2024-01-30T06:28:55;6;3;2
57049;PMS7003;42935;50.966;16.992;2024-01-30T06:32:13;4;4;3
57049;PMS7003;42935;50.966;16.992;2024-01-30T06:35:31;13;6;3
57049;PMS7003;42935;50.966;16.992;2024-01-30T06:38:50;7;5;4
57049;PMS7003;42935;50.966;16.992;2024-01-30T06:42:08;8;6;5
57049;PMS7003;42935;50.966;16.992;2024-01-30T06:45:25;7;4;3
57049;PMS7003;42935;50.966;16.992;2024-01-30T06:48:43;7;4;3
57049;PMS7003;42935;50.966;16.992;2024-01-30T06:52:34;14;8;5
57049;PMS7003;42935;50.966;16.992;2024-01-30T06:55:53;6;4;3
57049;PMS7003;42935;50.966;16.992;2024-01-30T06:59:14;8;4;3
57049;PMS7003;42935;50.966;16.992;2024-01-30T07:02:31;7;5;3
57049;PMS7003;42935;50.966;16.992;2024-01-30T07:05:52;16;6;4
57049;PMS7003;42935;50.966;16.992;2024-01-30T07:09:12;9;5;4
57049;PMS7003;42935;50.966;16.992;2024-01-30T07:12:36;10;7;4
57049;PMS7003;42935;50.966;16.992;2024-01-30T07:15:55;10;4;3
57049;PMS7003;42935;50.966;16.992;2024-01-30T07:19:15;7;5;4
57049;PMS7003;42935;50.966;16.992;2024-01-30T07:22:33;9;5;3
57049;PMS7003;42935;50.966;16.992;2024-01-30T07:25:57;9;7;4
57049;PMS7003;42935;50.966;16.992;2024-01-30T07:29:16;9;6;5
57049;PMS7003;42935;50.966;16.992;2024-01-30T07:32:37;8;6;4
57049;PMS7003;42935;50.966;16.992;2024-01-30T07:35:56;10;5;3
57049;PMS7003;42935;50.966;16.992;2024-01-30T07:39:17;10;6;4
57049;PMS7003;42935;50.966;16.992;2024-01-30T07:42:37;9;6;4
57049;PMS7003;42935;50.966;16.992;2024-01-30T07:46:27;16;10;7
57049;PMS7003;42935;50.966;16.992;2024-01-30T07:49:45;10;7;4
57049;PMS7003;42935;50.966;16.992;2024-01-30T07:53:06;8;5;4
57049;PMS7003;42935;50.966;16.992;2024-01-30T07:56:22;10;6;4
57049;PMS7003;42935;50.966;16.992;2024-01-30T07:59:44;9;5;4
57049;PMS7003;42935;50.966;16.992;2024-01-30T08:03:05;10;7;5
57049;PMS7003;42935;50.966;16.992;2024-01-30T08:06:27;9;7;4
57049;PMS7003;42935;50.966;16.992;2024-01-30T08:09:43;13;6;4
57049;PMS7003;42935;50.966;16.992;2024-01-30T08:13:00;13;5;4
57049;PMS7003;42935;50.966;16.992;2024-01-30T08:16:23;10;8;5
57049;PMS7003;42935;50.966;16.992;2024-01-30T08:20:14;12;11;8
57049;PMS7003;42935;50.966;16.992;2024-01-30T08:23:34;11;8;6
57049;PMS7003;42935;50.966;16.992;2024-01-30T08:26:54;9;4;2
57049;PMS7003;42935;50.966;16.992;2024-01-30T08:30:45;12;10;8
57049;PMS7003;42935;50.966;16.992;2024-01-30T08:34:10;7;6;5
57049;PMS7003;42935;50.966;16.992;2024-01-30T08:37:29;12;9;6
57049;PMS7003;42935;50.966;16.992;2024-01-30T08:41:20;16;11;7
57049;PMS7003;42935;50.966;16.992;2024-01-30T08:44:39;14;8;6
57049;PMS7003;42935;50.966;16.992;2024-01-30T08:48:02;12;8;6
57049;PMS7003;42935;50.966;16.992;2024-01-30T08:51:24;9;6;5
57049;PMS7003;42935;50.966;16.992;2024-01-30T08:54:49;10;6;5
57049;PMS7003;42935;50.966;16.992;2024-01-30T08:58:10;11;6;5
57049;PMS7003;42935;50.966;16.992;2024-01-30T09:01:29;11;7;5
57049;PMS7003;42935;50.966;16.992;2024-01-30T09:04:48;9;7;5
57049;PMS7003;42935;50.966;16.992;2024-01-30T09:08:05;10;7;5
57049;PMS7003;42935;50.966;16.992;2024-01-30T09:11:25;12;8;5
57049;PMS7003;42935;50.966;16.992;2024-01-30T09:14:44;10;8;5
57049;PMS7003;42935;50.966;16.992;2024-01-30T09:18:04;11;10;9
57049;PMS7003;42935;50.966;16.992;2024-01-30T09:21:26;9;8;6
57049;PMS7003;42935;50.966;16.992;2024-01-30T09:24:49;13;10;6
57049;PMS7003;42935;50.966;16.992;2024-01-30T09:28:11;9;6;5
57049;PMS7003;42935;50.966;16.992;2024-01-30T09:32:01;14;11;8
57049;PMS7003;42935;50.966;16.992;2024-01-30T09:35:22;9;8;6
57049;PMS7003;42935;50.966;16.992;2024-01-30T09:38:38;12;8;6
57049;PMS7003;42935;50.966;16.992;2024-01-30T09:45:33;9;8;5
57049;PMS7003;42935;50.966;16.992;2024-01-30T09:48:55;12;10;7
57049;PMS7003;42935;50.966;16.992;2024-01-30T09:52:20;14;9;6
57049;PMS7003;42935;50.966;16.992;2024-01-30T09:55:45;11;9;7
57049;PMS7003;42935;50.966;16.992;2024-01-30T09:59:02;12;10;7
57049;PMS7003;42935;50.966;16.992;2024-01-30T10:02:27;14;11;8
57049;PMS7003;42935;50.966;16.992;2024-01-30T10:05:52;12;9;7
57049;PMS7003;42935;50.966;16.992;2024-01-30T10:09:41;17;11;8
57049;PMS7003;42935;50.966;16.992;2024-01-30T10:13:05;12;9;7
57049;PMS7003;42935;50.966;16.992;2024-01-30T10:16:25;16;10;8
57049;PMS7003;42935;50.966;16.992;2024-01-30T10:19:44;15;11;8
57049;PMS7003;42935;50.966;16.992;2024-01-30T10:23:01;15;11;7
57049;PMS7003;42935;50.966;16.992;2024-01-30T10:26:21;16;14;9
57049;PMS7003;42935;50.966;16.992;2024-01-30T10:29:38;15;13;8
57049;PMS7003;42935;50.966;16.992;2024-01-30T10:32:59;14;12;8
57049;PMS7003;42935;50.966;16.992;2024-01-30T10:36:28;15;12;8
57049;PMS7003;42935;50.966;16.992;2024-01-30T10:39:54;11;9;7
57049;PMS7003;42935;50.966;16.992;2024-01-30T10:43:18;17;10;8
57049;PMS7003;42935;50.966;16.992;2024-01-30T10:46:43;16;10;8
57049;PMS7003;42935;50.966;16.992;2024-01-30T10:50:40;12;10;8
57049;PMS7003;42935;50.966;16.992;2024-01-30T10:54:38;15;12;8
57049;PMS7003;42935;50.966;16.992;2024-01-30T10:58:15;14;12;9
57049;PMS7003;42935;50.966;16.992;2024-01-30T11:01:35;19;14;9
57049;PMS7003;42935;50.966;16.992;2024-01-30T11:04:59;18;12;9
57049;PMS7003;42935;50.966;16.992;2024-01-30T11:08:24;15;12;7
57049;PMS7003;42935;50.966;16.992;2024-01-30T11:12:21;16;11;8
57049;PMS7003;42935;50.966;16.992;2024-01-30T11:15:44;14;11;8
57049;PMS7003;42935;50.966;16.992;2024-01-30T11:19:10;13;12;8
57049;PMS7003;42935;50.966;16.992;2024-01-30T11:22:31;12;10;7
57049;PMS7003;42935;50.966;16.992;2024-01-30T11:25:51;16;9;7
57049;PMS7003;42935;50.966;16.992;2024-01-30T11:29:49;15;12;7
57049;PMS7003;42935;50.966;16.992;2024-01-30T11:33:09;18;11;8
57049;PMS7003;42935;50.966;16.992;2024-01-30T11:36:31;12;11;7
57049;PMS7003;42935;50.966;16.992;2024-01-30T11:39:58;12;11;8
57049;PMS7003;42935;50.966;16.992;2024-01-30T11:43:18;11;9;7
57049;PMS7003;42935;50.966;16.992;2024-01-30T11:46:36;14;10;7
57049;PMS7003;42935;50.966;16.992;2024-01-30T11:49:57;13;11;7
57049;PMS7003;42935;50.966;16.992;2024-01-30T11:53:15;13;10;7
57049;PMS7003;42935;50.966;16.992;2024-01-30T11:56:34;15;9;7
57049;PMS7003;42935;50.966;16.992;2024-01-30T11:59:54;14;11;8
57049;PMS7003;42935;50.966;16.992;2024-01-30T12:03:15;12;10;8
57049;PMS7003;42935;50.966;16.992;2024-01-30T12:07:06;15;12;9
57049;PMS7003;42935;50.966;16.992;2024-01-30T12:10:24;12;11;7
57049;PMS7003;42935;50.966;16.992;2024-01-30T12:13:48;15;13;8
57049;PMS7003;42935;50.966;16.992;2024-01-30T12:17:10;14;12;8
57049;PMS7003;42935;50.966;16.992;2024-01-30T12:20:30;11;11;8
57049;PMS7003;42935;50.966;16.992;2024-01-30T12:23:50;18;13;9
57049;PMS7003;42935;50.966;16.992;2024-01-30T12:27:11;16;13;9
57049;PMS7003;42935;50.966;16.992;2024-01-30T12:30:34;15;13;9
57049;PMS7003;42935;50.966;16.992;2024-01-30T12:33:54;16;13;10
57049;PMS7003;42935;50.966;16.992;2024-01-30T12:37:17;18;14;10
57049;PMS7003;42935;50.966;16.992;2024-01-30T12:40:42;17;12;9
57049;PMS7003;42935;50.966;16.992;2024-01-30T12:44:04;18;13;9
57049;PMS7003;42935;50.966;16.992;2024-01-30T12:47:23;15;12;8
57049;PMS7003;42935;50.966;16.992;2024-01-30T12:50:48;17;14;9
57049;PMS7003;42935;50.966;16.992;2024-01-30T12:54:09;16;12;9
57049;PMS7003;42935;50.966;16.992;2024-01-30T12:57:28;16;12;9
57049;PMS7003;42935;50.966;16.992;2024-01-30T13:00:46;21;15;10
57049;PMS7003;42935;50.966;16.992;2024-01-30T13:04:04;17;12;8
57049;PMS7003;42935;50.966;16.992;2024-01-30T13:07:22;21;15;11
57049;PMS7003;42935;50.966;16.992;2024-01-30T13:10:40;13;13;9
57049;PMS7003;42935;50.966;16.992;2024-01-30T13:13:59;15;14;9
57049;PMS7003;42935;50.966;16.992;2024-01-30T13:17:18;21;16;11
57049;PMS7003;42935;50.966;16.992;2024-01-30T13:20:37;17;15;12
57049;PMS7003;42935;50.966;16.992;2024-01-30T13:23:57;18;13;8
57049;PMS7003;42935;50.966;16.992;2024-01-30T13:27:16;15;13;9
57049;PMS7003;42935;50.966;16.992;2024-01-30T13:30:34;17;13;9
57049;PMS7003;42935;50.966;16.992;2024-01-30T13:33:52;21;14;10
57049;PMS7003;42935;50.966;16.992;2024-01-30T13:37:13;15;13;9
57049;PMS7003;42935;50.966;16.992;2024-01-30T13:40:34;21;16;12
57049;PMS7003;42935;50.966;16.992;2024-01-30T13:43:59;20;14;9
57049;PMS7003;42935;50.966;16.992;2024-01-30T13:47:22;18;15;11
57049;PMS7003;42935;50.966;16.992;2024-01-30T13:50:43;22;15;10
57049;PMS7003;42935;50.966;16.992;2024-01-30T13:54:32;15;13;9
57049;PMS7003;42935;50.966;16.992;2024-01-30T13:57:53;17;13;10
57049;PMS7003;42935;50.966;16.992;2024-01-30T14:01:22;22;17;11
57049;PMS7003;42935;50.966;16.992;2024-01-30T14:04:41;23;17;12
57049;PMS7003;42935;50.966;16.992;2024-01-30T14:08:05;19;16;11
57049;PMS7003;42935;50.966;16.992;2024-01-30T14:11:23;20;17;12
57049;PMS7003;42935;50.966;16.992;2024-01-30T14:15:17;23;19;12
57049;PMS7003;42935;50.966;16.992;2024-01-30T14:19:09;23;15;11
57049;PMS7003;42935;50.966;16.992;2024-01-30T14:22:31;24;18;13
57049;PMS7003;42935;50.966;16.992;2024-01-30T14:26:22;22;16;11
57049;PMS7003;42935;50.966;16.992;2024-01-30T14:30:12;21;17;11
57049;PMS7003;42935;50.966;16.992;2024-01-30T14:34:11;19;15;12
57049;PMS7003;42935;50.966;16.992;2024-01-30T14:37:32;21;15;10
57049;PMS7003;42935;50.966;16.992;2024-01-30T14:40:54;19;16;11
57049;PMS7003;42935;50.966;16.992;2024-01-30T14:44:45;22;17;12
57049;PMS7003;42935;50.966;16.992;2024-01-30T14:48:43;21;17;12
57049;PMS7003;42935;50.966;16.992;2024-01-30T14:52:10;19;17;12
57049;PMS7003;42935;50.966;16.992;2024-01-30T14:56:02;25;20;12
57049;PMS7003;42935;50.966;16.992;2024-01-30T14:59:53;25;19;13
57049;PMS7003;42935;50.966;16.992;2024-01-30T15:03:13;25;19;13
57049;PMS7003;42935;50.966;16.992;2024-01-30T15:06:35;22;17;13
57049;PMS7003;42935;50.966;16.992;2024-01-30T15:09:55;23;18;14
57049;PMS7003;42935;50.966;16.992;2024-01-30T15:13:16;25;17;12
57049;PMS7003;42935;50.966;16.992;2024-01-30T15:16:37;24;19;13
57049;PMS7003;42935;50.966;16.992;2024-01-30T15:19:56;24;18;13
57049;PMS7003;42935;50.966;16.992;2024-01-30T15:23:49;21;18;13
57049;PMS7003;42935;50.966;16.992;2024-01-30T15:27:17;26;22;15
57049;PMS7003;42935;50.966;16.992;2024-01-30T15:30:40;23;17;12
57049;PMS7003;42935;50.966;16.992;2024-01-30T15:34:33;29;23;15
57049;PMS7003;42935;50.966;16.992;2024-01-30T15:37:53;26;22;16
57049;PMS7003;42935;50.966;16.992;2024-01-30T15:41:13;23;19;14
57049;PMS7003;42935;50.966;16.992;2024-01-30T15:45:11;27;21;15
57049;PMS7003;42935;50.966;16.992;2024-01-30T15:48:40;28;21;14
57049;PMS7003;42935;50.966;16.992;2024-01-30T15:52:06;27;20;12
57049;PMS7003;42935;50.966;16.992;2024-01-30T15:55:34;29;20;15
57049;PMS7003;42935;50.966;16.992;2024-01-30T15:59:32;29;24;15
57049;PMS7003;42935;50.966;16.992;2024-01-30T16:03:00;34;27;16
57049;PMS7003;42935;50.966;16.992;2024-01-30T16:06:28;27;22;16
57049;PMS7003;42935;50.966;16.992;2024-01-30T16:09:45;26;22;15
57049;PMS7003;42935;50.966;16.992;2024-01-30T16:13:09;27;22;15
57049;PMS7003;42935;50.966;16.992;2024-01-30T16:16:29;33;24;16
57049;PMS7003;42935;50.966;16.992;2024-01-30T16:19:47;25;20;13
57049;PMS7003;42935;50.966;16.992;2024-01-30T16:23:12;28;18;12
57049;PMS7003;42935;50.966;16.992;2024-01-30T16:26:34;27;19;14
57049;PMS7003;42935;50.966;16.992;2024-01-30T16:29:53;31;24;17
57049;PMS7003;42935;50.966;16.992;2024-01-30T16:33:12;29;22;15
57049;PMS7003;42935;50.966;16.992;2024-01-30T16:36:30;32;25;17
57049;PMS7003;42935;50.966;16.992;2024-01-30T16:39:54;31;22;14
57049;PMS7003;42935;50.966;16.992;2024-01-30T16:43:14;28;22;15
57049;PMS7003;42935;50.966;16.992;2024-01-30T16:46:34;31;23;15
57049;PMS7003;42935;50.966;16.992;2024-01-30T16:49:52;29;24;16
57049;PMS7003;42935;50.966;16.992;2024-01-30T16:53:19;28;21;14
57049;PMS7003;42935;50.966;16.992;2024-01-30T16:56:37;32;23;14
57049;PMS7003;42935;50.966;16.992;2024-01-30T16:59:55;28;20;15
57049;PMS7003;42935;50.966;16.992;2024-01-30T17:03:23;30;24;16
57049;PMS7003;42935;50.966;16.992;2024-01-30T17:06:45;36;28;18
57049;PMS7003;42935;50.966;16.992;2024-01-30T17:10:07;37;29;19
57049;PMS7003;42935;50.966;16.992;2024-01-30T17:13:27;42;31;21
57049;PMS7003;42935;50.966;16.992;2024-01-30T17:16:44;46;29;18
57049;PMS7003;42935;50.966;16.992;2024-01-30T17:20:08;41;31;21
57049;PMS7003;42935;50.966;16.992;2024-01-30T17:23:29;39;29;20
57049;PMS7003;42935;50.966;16.992;2024-01-30T17:27:02;39;25;15
57049;PMS7003;42935;50.966;16.992;2024-01-30T17:30:26;36;28;17
57049;PMS7003;42935;50.966;16.992;2024-01-30T17:33:46;44;28;18
57049;PMS7003;42935;50.966;16.992;2024-01-30T17:37:03;33;26;18
57049;PMS7003;42935;50.966;16.992;2024-01-30T17:40:23;39;27;17
57049;PMS7003;42935;50.966;16.992;2024-01-30T17:43:42;25;21;14
57049;PMS7003;42935;50.966;16.992;2024-01-30T17:47:02;38;22;15
57049;PMS7003;42935;50.966;16.992;2024-01-30T17:50:22;31;23;16
57049;PMS7003;42935;50.966;16.992;2024-01-30T17:53:43;27;20;16
57049;PMS7003;42935;50.966;16.992;2024-01-30T17:57:05;38;31;19
57049;PMS7003;42935;50.966;16.992;2024-01-30T18:00:23;34;23;15
57049;PMS7003;42935;50.966;16.992;2024-01-30T18:03:48;33;25;17
57049;PMS7003;42935;50.966;16.992;2024-01-30T18:07:16;33;23;14
57049;PMS7003;42935;50.966;16.992;2024-01-30T18:10:38;43;27;17
57049;PMS7003;42935;50.966;16.992;2024-01-30T18:14:02;36;24;17
57049;PMS7003;42935;50.966;16.992;2024-01-30T18:17:22;37;25;17
57049;PMS7003;42935;50.966;16.992;2024-01-30T18:20:42;30;21;16
57049;PMS7003;42935;50.966;16.992;2024-01-30T18:24:04;36;26;17
57049;PMS7003;42935;50.966;16.992;2024-01-30T18:27:23;29;19;11
57049;PMS7003;42935;50.966;16.992;2024-01-30T18:30:41;27;22;14
57049;PMS7003;42935;50.966;16.992;2024-01-30T18:34:30;43;31;20
57049;PMS7003;42935;50.966;16.992;2024-01-30T18:37:50;27;19;13
57049;PMS7003;42935;50.966;16.992;2024-01-30T18:41:10;29;21;15
57049;PMS7003;42935;50.966;16.992;2024-01-30T18:44:38;38;25;17
57049;PMS7003;42935;50.966;16.992;2024-01-30T18:47:58;26;19;13
57049;PMS7003;42935;50.966;16.992;2024-01-30T18:51:16;39;28;16
57049;PMS7003;42935;50.966;16.992;2024-01-30T18:54:41;37;21;15
57049;PMS7003;42935;50.966;16.992;2024-01-30T18:58:05;39;28;17
57049;PMS7003;42935;50.966;16.992;2024-01-30T19:01:21;29;19;13
57049;PMS7003;42935;50.966;16.992;2024-01-30T19:04:39;32;21;15
57049;PMS7003;42935;50.966;16.992;2024-01-30T19:08:02;32;22;13
57049;PMS7003;42935;50.966;16.992;2024-01-30T19:11:22;30;21;15
57049;PMS7003;42935;50.966;16.992;2024-01-30T19:14:42;23;15;11
57049;PMS7003;42935;50.966;16.992;2024-01-30T19:18:02;25;18;13
57049;PMS7003;42935;50.966;16.992;2024-01-30T19:21:22;27;21;13
57049;PMS7003;42935;50.966;16.992;2024-01-30T19:24:40;22;15;11
57049;PMS7003;42935;50.966;16.992;2024-01-30T19:28:34;41;31;20
57049;PMS7003;42935;50.966;16.992;2024-01-30T19:31:58;43;30;19
57049;PMS7003;42935;50.966;16.992;2024-01-30T19:35:22;34;23;14
57049;PMS7003;42935;50.966;16.992;2024-01-30T19:38:39;33;22;15
57049;PMS7003;42935;50.966;16.992;2024-01-30T19:41:57;29;22;17
57049;PMS7003;42935;50.966;16.992;2024-01-30T19:45:15;23;17;11
57049;PMS7003;42935;50.966;16.992;2024-01-30T19:48:35;34;21;14
57049;PMS7003;42935;50.966;16.992;2024-01-30T19:51:54;26;18;14
57049;PMS7003;42935;50.966;16.992;2024-01-30T19:55:12;27;22;15
57049;PMS7003;42935;50.966;16.992;2024-01-30T19:58:31;29;18;12
57049;PMS7003;42935;50.966;16.992;2024-01-30T20:01:51;28;20;13
57049;PMS7003;42935;50.966;16.992;2024-01-30T20:05:13;43;30;18
57049;PMS7003;42935;50.966;16.992;2024-01-30T20:08:35;39;27;16
57049;PMS7003;42935;50.966;16.992;2024-01-30T20:12:30;40;30;18
57049;PMS7003;42935;50.966;16.992;2024-01-30T20:15:54;34;27;16
57049;PMS7003;42935;50.966;16.992;2024-01-30T20:19:20;34;24;16
57049;PMS7003;42935;50.966;16.992;2024-01-30T20:22:38;30;22;14
57049;PMS7003;42935;50.966;16.992;2024-01-30T20:25:56;33;23;18
57049;PMS7003;42935;50.966;16.992;2024-01-30T20:29:17;32;23;16
57049;PMS7003;42935;50.966;16.992;2024-01-30T20:32:41;34;24;16
57049;PMS7003;42935;50.966;16.992;2024-01-30T20:36:06;34;24;17
57049;PMS7003;42935;50.966;16.992;2024-01-30T20:39:27;31;22;13
57049;PMS7003;42935;50.966;16.992;2024-01-30T20:42:51;29;23;15
57049;PMS7003;42935;50.966;16.992;2024-01-30T20:46:15;45;36;22
57049;PMS7003;42935;50.966;16.992;2024-01-30T20:49:44;41;32;19
57049;PMS7003;42935;50.966;16.992;2024-01-30T20:53:03;34;23;16
57049;PMS7003;42935;50.966;16.992;2024-01-30T20:56:23;25;21;15
57049;PMS7003;42935;50.966;16.992;2024-01-30T20:59:44;26;21;15
57049;PMS7003;42935;50.966;16.992;2024-01-30T21:03:04;37;23;15
57049;PMS7003;42935;50.966;16.992;2024-01-30T21:06:22;28;16;11
57049;PMS7003;42935;50.966;16.992;2024-01-30T21:10:20;47;33;20
57049;PMS7003;42935;50.966;16.992;2024-01-30T21:13:35;31;23;15
57049;PMS7003;42935;50.966;16.992;2024-01-30T21:16:53;21;18;13
57049;PMS7003;42935;50.966;16.992;2024-01-30T21:20:11;26;20;12
57049;PMS7003;42935;50.966;16.992;2024-01-30T21:23:29;27;23;15
57049;PMS7003;42935;50.966;16.992;2024-01-30T21:26:47;23;18;13
57049;PMS7003;42935;50.966;16.992;2024-01-30T21:30:08;36;25;15
57049;PMS7003;42935;50.966;16.992;2024-01-30T21:33:24;25;17;12
57049;PMS7003;42935;50.966;16.992;2024-01-30T21:36:42;22;17;12
57049;PMS7003;42935;50.966;16.992;2024-01-30T21:40:05;34;22;13
57049;PMS7003;42935;50.966;16.992;2024-01-30T21:43:26;28;21;15
57049;PMS7003;42935;50.966;16.992;2024-01-30T21:46:44;30;20;15
57049;PMS7003;42935;50.966;16.992;2024-01-30T21:50:06;29;23;15
57049;PMS7003;42935;50.966;16.992;2024-01-30T21:53:24;33;24;15
57049;PMS7003;42935;50.966;16.992;2024-01-30T21:56:44;37;26;16